createdAt,value
2022-12-05T00:02:57.840Z,28.37
2022-12-05T00:06:58.901Z,28.17
2022-12-05T00:10:59.981Z,25.37
2022-12-05T00:15:01.225Z,33.77
2022-12-05T00:19:04.199Z,30.37
2022-12-05T00:23:05.303Z,28.97
2022-12-05T00:27:06.467Z,29.17
2022-12-05T00:31:13.420Z,30.83
2022-12-05T00:35:14.502Z,27.77
2022-12-05T00:39:15.664Z,26.20
2022-12-05T00:43:16.732Z,31.80
2022-12-05T00:47:17.919Z,26.67
2022-12-05T00:51:22.797Z,26.07
2022-12-05T00:55:23.868Z,29.53
2022-12-05T00:59:24.963Z,30.63
2022-12-05T01:03:26.178Z,29.20
2022-12-05T01:07:27.301Z,29.97
2022-12-05T01:11:28.676Z,29.50
2022-12-05T01:15:29.861Z,26.40
2022-12-05T01:19:32.441Z,26.00
2022-12-05T01:23:33.543Z,30.80
2022-12-05T01:27:34.733Z,27.47
2022-12-05T01:31:36.622Z,28.63
2022-12-05T01:35:40.092Z,30.07
2022-12-05T01:39:41.629Z,32.63
2022-12-05T01:43:54.596Z,27.33
2022-12-05T01:47:55.896Z,28.03
2022-12-05T01:52:04.097Z,26.63
2022-12-05T01:56:05.724Z,26.87
2022-12-05T02:00:13.757Z,28.53
2022-12-05T02:04:15.274Z,26.90
2022-12-05T02:08:16.707Z,28.50
2022-12-05T02:12:19.816Z,27.63
2022-12-05T02:16:39.651Z,24.93
2022-12-05T02:21:08.572Z,31.60
2022-12-05T02:25:29.761Z,25.23
2022-12-05T02:29:51.410Z,29.77
2022-12-05T02:33:56.398Z,29.70
2022-12-05T02:38:10.480Z,30.07
2022-12-05T02:42:39.620Z,31.13
2022-12-05T02:46:42.207Z,32.60
2022-12-05T02:50:43.752Z,32.30
2022-12-05T02:54:48.499Z,39.20
2022-12-05T02:58:54.410Z,30.40
2022-12-05T03:02:58.935Z,30.23
2022-12-05T03:07:06.383Z,29.23
2022-12-05T03:11:07.556Z,28.53
2022-12-05T03:15:15.511Z,33.47
2022-12-05T03:19:26.533Z,28.57
2022-12-05T03:23:33.831Z,34.30
2022-12-05T03:27:47.277Z,27.10
2022-12-05T03:31:58.224Z,29.40
2022-12-05T03:36:15.514Z,31.67
2022-12-05T03:40:27.283Z,28.53
2022-12-05T03:44:32.577Z,25.90
2022-12-05T03:48:46.920Z,29.67
2022-12-05T03:53:20.852Z,28.57
2022-12-05T03:57:28.880Z,39.33
2022-12-05T04:01:32.373Z,34.73
2022-12-05T04:05:49.107Z,32.20
2022-12-05T04:09:54.010Z,36.73
2022-12-05T04:14:10.611Z,36.63
2022-12-05T04:18:12.188Z,28.33
2022-12-05T04:22:13.269Z,31.83
2022-12-05T04:26:18.221Z,38.43
2022-12-05T04:30:31.775Z,33.97
2022-12-05T04:34:36.133Z,33.57
2022-12-05T04:38:47.297Z,34.57
2022-12-05T04:42:51.272Z,36.37
2022-12-05T04:46:56.190Z,36.00
2022-12-05T04:50:58.480Z,39.10
2022-12-05T04:55:06.543Z,35.60
2022-12-05T04:59:07.895Z,33.87
2022-12-05T05:03:29.704Z,37.33
2022-12-05T05:07:30.957Z,40.37
2022-12-05T05:11:33.886Z,34.50
2022-12-05T05:15:35.010Z,34.77
2022-12-05T05:19:36.388Z,36.97
2022-12-05T05:23:37.552Z,39.00
2022-12-05T05:27:38.637Z,37.77
2022-12-05T05:31:40.982Z,33.77
2022-12-05T05:35:42.169Z,38.00
2022-12-05T05:39:43.473Z,34.87
2022-12-05T05:43:45.579Z,35.47
2022-12-05T05:47:49.727Z,36.17
2022-12-05T05:51:50.895Z,43.83
2022-12-05T05:55:51.973Z,31.63
2022-12-05T05:59:53.072Z,37.77
2022-12-05T06:03:54.374Z,33.50
2022-12-05T06:07:55.702Z,33.73
2022-12-05T06:11:56.810Z,42.40
2022-12-05T06:15:57.975Z,35.23
2022-12-05T06:19:59.479Z,39.67
2022-12-05T06:24:00.962Z,43.10
2022-12-05T06:28:02.143Z,38.03
2022-12-05T06:32:03.676Z,46.37
2022-12-05T06:36:07.624Z,44.43
2022-12-05T06:40:10.461Z,40.67
2022-12-05T06:44:11.654Z,51.93
2022-12-05T06:48:12.739Z,58.17
2022-12-05T06:52:13.787Z,37.57
2022-12-05T06:56:17.484Z,40.90
2022-12-05T07:00:23.991Z,35.93
2022-12-05T07:04:25.282Z,52.63
2022-12-05T07:08:26.523Z,32.97
2022-12-05T07:12:27.700Z,40.67
2022-12-05T07:16:29.234Z,56.33
2022-12-05T07:20:49.508Z,48.07
2022-12-05T07:24:33.531Z,42.53
2022-12-05T07:28:35.031Z,78.90
2022-12-05T07:32:36.109Z,46.13
2022-12-05T07:36:37.337Z,46.50
2022-12-05T07:40:38.420Z,44.27
2022-12-05T07:44:39.610Z,42.73
2022-12-05T07:48:40.857Z,47.40
2022-12-05T07:52:42.122Z,44.03
2022-12-05T07:56:47.534Z,36.03
2022-12-05T08:00:46.383Z,38.97
2022-12-05T08:04:47.777Z,51.17
2022-12-05T08:08:50.362Z,53.50
2022-12-05T08:12:52.065Z,36.10
2022-12-05T08:16:53.190Z,42.80
2022-12-05T08:20:54.384Z,52.23
2022-12-05T08:24:56.491Z,45.90
2022-12-05T08:29:00.989Z,49.97
2022-12-05T08:33:02.413Z,48.40
2022-12-05T08:37:03.511Z,40.30
2022-12-05T08:41:07.158Z,43.70
2022-12-05T08:45:08.941Z,45.80
2022-12-05T08:49:11.682Z,41.93
2022-12-05T08:53:12.771Z,45.63
2022-12-05T08:57:13.858Z,45.57
2022-12-05T09:01:18.145Z,42.60
2022-12-05T09:05:28.422Z,39.67
2022-12-05T09:09:22.318Z,39.87
2022-12-05T09:13:23.468Z,39.40
2022-12-05T09:17:24.544Z,37.63
2022-12-05T09:21:28.214Z,34.53
2022-12-05T09:25:29.296Z,35.83
2022-12-05T09:29:30.861Z,38.00
2022-12-05T09:33:34.743Z,35.70
2022-12-05T09:37:40.111Z,30.47
2022-12-05T09:42:09.503Z,29.90
2022-12-05T09:46:35.290Z,31.90
2022-12-05T09:50:36.395Z,32.13
2022-12-05T09:54:37.596Z,39.37
2022-12-05T09:58:52.949Z,38.43
2022-12-05T10:03:03.847Z,32.60
2022-12-05T10:07:37.628Z,30.97
2022-12-05T10:11:45.639Z,28.00
2022-12-05T10:15:57.290Z,32.13
2022-12-05T10:19:59.915Z,30.10
2022-12-05T10:24:04.725Z,32.63
2022-12-05T10:28:09.603Z,32.50
2022-12-05T10:32:14.571Z,32.50
2022-12-05T10:36:15.851Z,29.27
2022-12-05T10:40:17.260Z,32.43
2022-12-05T10:44:19.136Z,28.70
2022-12-05T10:48:21.923Z,31.47
2022-12-05T10:52:23.691Z,29.80
2022-12-05T10:56:48.746Z,27.43
2022-12-05T11:00:53.229Z,32.87
2022-12-05T11:04:55.426Z,32.70
2022-12-05T11:09:05.188Z,27.10
2022-12-05T11:13:07.105Z,24.33
2022-12-05T11:17:12.076Z,29.00
2022-12-05T11:21:14.122Z,27.57
2022-12-05T11:25:33.234Z,23.87
2022-12-05T11:29:37.829Z,29.50
2022-12-05T11:33:39.158Z,24.77
2022-12-05T11:37:47.120Z,32.27
2022-12-05T11:42:11.719Z,25.93
2022-12-05T11:46:33.094Z,32.10
2022-12-05T11:50:47.262Z,35.47
2022-12-05T11:55:06.137Z,35.73
2022-12-05T11:59:10.736Z,33.80
2022-12-05T12:03:21.874Z,29.17
2022-12-05T12:07:46.578Z,29.93
2022-12-05T12:11:51.581Z,33.33
2022-12-05T12:16:19.287Z,38.87
2022-12-05T12:20:39.397Z,43.10
2022-12-05T12:24:53.435Z,38.40
2022-12-05T12:29:10.475Z,31.57
2022-12-05T12:33:36.467Z,32.20
2022-12-05T12:38:13.142Z,27.87
2022-12-05T12:42:27.138Z,36.27
2022-12-05T12:46:49.065Z,29.47
2022-12-05T12:50:53.168Z,31.63
2022-12-05T12:55:10.752Z,33.17
2022-12-05T12:59:24.582Z,26.90
2022-12-05T13:03:49.858Z,31.70
2022-12-05T13:07:51.511Z,32.30
2022-12-05T13:11:55.226Z,31.90
2022-12-05T13:16:00.156Z,32.97
2022-12-05T13:20:01.957Z,31.37
2022-12-05T13:24:04.283Z,30.70
2022-12-05T13:28:09.296Z,30.70
2022-12-05T13:32:29.303Z,31.80
2022-12-05T13:36:58.301Z,36.40
2022-12-05T13:41:17.735Z,36.63
2022-12-05T13:45:20.076Z,27.20
2022-12-05T13:49:31.134Z,27.00
2022-12-05T13:53:47.706Z,26.40
2022-12-05T13:57:52.112Z,29.43
2022-12-05T14:01:56.245Z,24.90
2022-12-05T14:05:56.221Z,22.33
2022-12-05T14:09:57.639Z,25.33
2022-12-05T14:14:04.259Z,27.20
2022-12-05T14:18:11.492Z,24.07
2022-12-05T14:22:28.454Z,24.10
2022-12-05T14:27:07.010Z,26.23
2022-12-05T14:31:14.767Z,27.57
2022-12-05T14:35:20.198Z,30.83
2022-12-05T14:39:30.698Z,35.50
2022-12-05T14:43:33.880Z,29.00
2022-12-05T14:47:35.102Z,31.93
2022-12-05T14:51:40.067Z,36.50
2022-12-05T14:55:47.031Z,34.07
2022-12-05T14:59:58.082Z,35.63
2022-12-05T15:04:18.391Z,28.10
2022-12-05T15:08:20.660Z,30.27
2022-12-05T15:12:28.697Z,29.47
2022-12-05T15:16:32.872Z,29.90
2022-12-05T15:20:43.257Z,32.40
2022-12-05T15:24:44.332Z,33.10
2022-12-05T15:29:04.380Z,30.40
2022-12-05T15:33:09.230Z,31.20
2022-12-05T15:37:19.779Z,27.87
2022-12-05T15:41:20.939Z,25.93
2022-12-05T15:45:29.336Z,27.47
2022-12-05T15:49:30.443Z,26.57
2022-12-05T15:53:37.846Z,29.90
2022-12-05T15:57:45.785Z,25.20
2022-12-05T16:01:53.241Z,26.83
2022-12-05T16:06:01.235Z,26.87
2022-12-05T16:10:02.867Z,30.83
2022-12-05T16:14:06.400Z,28.70
2022-12-05T16:18:14.222Z,26.83
2022-12-05T16:22:22.335Z,26.43
2022-12-05T16:26:24.112Z,28.40
2022-12-05T16:30:26.184Z,24.70
2022-12-05T16:34:29.046Z,24.37
2022-12-05T16:38:31.008Z,24.90
2022-12-05T16:42:32.094Z,24.83
2022-12-05T16:46:39.967Z,26.17
2022-12-05T16:50:41.621Z,24.23
2022-12-05T16:54:45.489Z,24.37
2022-12-05T16:58:46.778Z,25.87
2022-12-05T17:02:47.924Z,23.73
2022-12-05T17:06:49.011Z,20.23
2022-12-05T17:10:51.166Z,22.10
2022-12-05T17:14:52.256Z,23.53
2022-12-05T17:18:53.526Z,22.57
2022-12-05T17:22:54.613Z,27.90
2022-12-05T17:26:55.689Z,27.50
2022-12-05T17:30:56.902Z,20.80
2022-12-05T17:35:01.182Z,17.77
2022-12-05T17:39:01.218Z,15.90
2022-12-05T17:43:02.602Z,13.53
2022-12-05T17:47:07.903Z,13.10
2022-12-05T17:51:10.538Z,12.93
2022-12-05T17:55:18.155Z,10.03
2022-12-05T17:59:19.315Z,14.27
2022-12-05T18:03:20.575Z,11.90
2022-12-05T18:07:21.738Z,13.90
2022-12-05T18:11:22.814Z,12.97
2022-12-05T18:15:23.871Z,11.70
2022-12-05T18:19:25.050Z,9.00
2022-12-05T18:23:26.109Z,10.90
2022-12-05T18:27:27.631Z,8.10
2022-12-05T18:31:30.222Z,7.70
2022-12-05T18:35:40.450Z,7.40
2022-12-05T18:39:42.024Z,7.90
2022-12-05T18:43:43.161Z,6.13
2022-12-05T18:47:44.965Z,7.27
2022-12-05T18:51:46.372Z,6.23
2022-12-05T18:59:51.256Z,10.73
2022-12-05T19:03:52.872Z,7.87
2022-12-05T19:07:54.404Z,8.17
2022-12-05T19:11:58.196Z,6.33
2022-12-05T19:16:08.382Z,7.57
2022-12-05T19:20:11.579Z,5.80
2022-12-05T19:24:16.157Z,6.20
2022-12-05T19:28:17.544Z,7.67
2022-12-05T19:32:19.090Z,7.10
2022-12-05T19:36:24.058Z,9.17
2022-12-05T19:40:25.240Z,5.97
2022-12-05T19:44:26.864Z,5.77
2022-12-05T19:48:29.468Z,7.00
2022-12-05T19:52:30.743Z,6.03
2022-12-05T19:56:33.301Z,6.63
2022-12-05T20:00:34.443Z,8.73
2022-12-05T20:04:35.724Z,8.60
2022-12-05T20:08:37.361Z,6.30
2022-12-05T20:12:38.447Z,8.10
2022-12-05T20:16:40.513Z,6.93
2022-12-05T20:20:43.099Z,6.27
2022-12-05T20:24:46.100Z,6.33
2022-12-05T20:28:47.637Z,7.53
2022-12-05T20:32:48.837Z,7.63
2022-12-05T20:36:49.891Z,9.13
2022-12-05T20:40:50.993Z,7.63
2022-12-05T20:44:52.305Z,7.53
2022-12-05T20:48:55.615Z,8.77
2022-12-05T20:52:56.977Z,11.93
2022-12-05T20:56:58.295Z,7.93
2022-12-05T21:01:01.225Z,7.40
2022-12-05T21:05:02.453Z,7.58
2022-12-05T21:09:06.838Z,6.87
2022-12-05T21:13:08.057Z,6.07
2022-12-05T21:17:09.251Z,8.13
2022-12-05T21:21:17.062Z,7.03
2022-12-05T21:25:18.106Z,7.10
2022-12-05T21:29:19.221Z,7.37
2022-12-05T21:33:23.278Z,7.87
2022-12-05T21:37:23.518Z,6.97
2022-12-05T21:41:25.905Z,7.17
2022-12-05T21:45:27.207Z,7.17
2022-12-05T21:49:28.414Z,7.20
2022-12-05T21:53:29.590Z,6.30
2022-12-05T21:57:34.783Z,6.30
2022-12-05T22:01:36.039Z,7.97
2022-12-05T22:05:37.475Z,6.70
2022-12-05T22:09:38.653Z,7.17
2022-12-05T22:13:45.095Z,6.73
2022-12-05T22:17:46.728Z,6.80
2022-12-05T22:21:48.834Z,8.33
2022-12-05T22:26:00.843Z,7.77
2022-12-05T22:30:02.282Z,7.37
2022-12-05T22:34:04.110Z,7.67
2022-12-05T22:38:05.309Z,9.03
2022-12-05T22:42:06.431Z,9.60
2022-12-05T22:46:11.162Z,6.50
2022-12-05T22:50:15.116Z,7.13
2022-12-05T22:54:16.210Z,8.07
2022-12-05T22:58:17.975Z,6.87
2022-12-05T23:02:19.249Z,7.13
2022-12-05T23:06:20.374Z,6.90
2022-12-05T23:10:25.855Z,7.60
2022-12-05T23:14:27.004Z,7.03
2022-12-05T23:18:28.114Z,8.50
2022-12-05T23:22:29.260Z,8.70
2022-12-05T23:26:34.054Z,6.37
2022-12-05T23:30:35.196Z,8.23
2022-12-05T23:34:36.355Z,6.50
2022-12-05T23:38:39.091Z,7.27
2022-12-05T23:42:40.261Z,8.00
2022-12-05T23:46:41.869Z,7.03
2022-12-05T23:50:43.252Z,7.10
2022-12-05T23:54:44.463Z,9.47
2022-12-05T23:58:46.211Z,9.23
